createdAt,value
2023-01-23T04:15:27.060Z,100.00
2023-01-23T04:17:55.923Z,100.00
2023-01-23T04:20:24.403Z,100.00
2023-01-23T04:22:51.150Z,100.00
2023-01-23T04:25:18.967Z,100.00
2023-01-23T04:27:46.796Z,100.00
2023-01-23T04:30:13.559Z,100.00
2023-01-23T04:32:40.363Z,100.00
2023-01-23T04:35:07.672Z,100.00
2023-01-23T04:37:36.995Z,100.00
2023-01-23T04:40:03.960Z,100.00
2023-01-23T04:42:35.247Z,100.00
2023-01-23T04:45:07.864Z,100.00
2023-01-23T04:47:53.731Z,100.00
2023-01-23T04:50:22.269Z,100.00
2023-01-23T04:52:49.426Z,100.00
2023-01-23T04:55:16.163Z,100.00
2023-01-23T04:57:45.007Z,100.00
2023-01-23T05:00:24.414Z,100.00
2023-01-23T05:02:51.525Z,100.00
2023-01-23T05:05:20.471Z,100.00
2023-01-23T05:07:48.812Z,100.00
2023-01-23T05:10:17.695Z,100.00
2023-01-23T05:12:44.570Z,100.00
2023-01-23T05:15:11.605Z,100.00
2023-01-23T05:17:40.936Z,100.00
2023-01-23T05:20:09.322Z,100.00
2023-01-23T05:22:36.712Z,100.00
2023-01-23T05:25:03.755Z,100.00
2023-01-23T05:27:30.661Z,100.00
2023-01-23T05:29:58.294Z,100.00
2023-01-23T05:32:26.154Z,100.00
2023-01-23T05:35:07.862Z,100.00
2023-01-23T05:37:35.760Z,100.00
2023-01-23T05:40:08.049Z,100.00
2023-01-23T05:42:57.420Z,100.00
2023-01-23T05:45:44.365Z,100.00
2023-01-23T05:48:17.204Z,100.00
2023-01-23T05:50:43.851Z,100.00
2023-01-23T05:53:10.950Z,100.00
2023-01-23T05:55:38.351Z,100.00
2023-01-23T05:58:05.547Z,100.00
2023-01-23T06:00:54.848Z,100.00
2023-01-23T06:03:44.502Z,100.00
2023-01-23T06:06:34.147Z,100.00
2023-01-23T06:09:00.891Z,100.00
2023-01-23T06:11:27.550Z,100.00
2023-01-23T06:13:54.207Z,100.00
2023-01-23T06:16:20.850Z,100.00
2023-01-23T06:18:50.526Z,100.00
2023-01-23T06:21:18.021Z,100.00
2023-01-23T06:23:45.590Z,100.00
2023-01-23T06:26:12.663Z,100.00
2023-01-23T06:28:39.720Z,100.00
2023-01-23T06:31:09.771Z,100.00
2023-01-23T06:33:49.474Z,100.00
2023-01-23T06:36:16.368Z,100.00
2023-01-23T06:38:43.365Z,100.00
2023-01-23T06:41:11.914Z,100.00
2023-01-23T06:43:41.562Z,100.00
2023-01-23T06:46:12.891Z,100.00
2023-01-23T06:48:39.844Z,100.00
2023-01-23T06:51:06.557Z,100.00
2023-01-23T06:53:33.384Z,100.00
2023-01-23T06:56:02.467Z,100.00
2023-01-23T06:58:31.046Z,100.00
2023-01-23T07:00:57.903Z,100.00
2023-01-23T07:03:44.689Z,100.00
2023-01-23T07:06:12.631Z,100.00
2023-01-23T07:08:40.990Z,100.00
2023-01-23T07:11:08.864Z,100.00
2023-01-23T07:13:36.004Z,100.00
2023-01-23T07:16:03.893Z,100.00
2023-01-23T07:18:32.638Z,100.00
2023-01-23T07:21:00.425Z,100.00
2023-01-23T07:23:27.116Z,100.00
2023-01-23T07:25:58.997Z,100.00
2023-01-23T07:28:26.216Z,100.00
2023-01-23T07:30:52.841Z,100.00
2023-01-23T07:33:19.445Z,100.00
2023-01-23T07:35:46.725Z,100.00
2023-01-23T07:38:13.615Z,100.00
2023-01-23T07:40:42.409Z,100.00
2023-01-23T07:43:14.046Z,100.00
2023-01-23T07:45:41.022Z,100.00
2023-01-23T07:48:07.673Z,100.00
2023-01-23T07:50:35.244Z,100.00
2023-01-23T07:53:02.983Z,100.00
2023-01-23T07:55:29.699Z,100.00
2023-01-23T07:57:56.712Z,100.00
2023-01-23T08:00:24.767Z,100.00
2023-01-23T08:02:52.295Z,100.00
2023-01-23T08:05:18.983Z,100.00
2023-01-23T08:07:46.052Z,100.00
2023-01-23T08:10:12.740Z,100.00
2023-01-23T08:12:40.128Z,100.00
2023-01-23T08:15:08.352Z,100.00
2023-01-23T08:17:35.369Z,100.00
2023-01-23T08:20:02.565Z,100.00
2023-01-23T08:22:33.057Z,100.00
2023-01-23T08:25:00.059Z,100.00
2023-01-23T08:27:26.794Z,100.00
2023-01-23T08:29:53.494Z,100.00
2023-01-23T08:32:20.207Z,100.00
2023-01-23T08:34:47.057Z,100.00
2023-01-23T08:37:16.199Z,100.00
2023-01-23T08:39:43.969Z,100.00
2023-01-23T08:42:10.916Z,100.00
2023-01-23T08:44:37.779Z,100.00
2023-01-23T08:47:04.993Z,100.00
2023-01-23T08:49:32.336Z,100.00
2023-01-23T08:51:59.375Z,100.00
2023-01-23T08:54:26.564Z,100.00
2023-01-23T08:56:53.307Z,100.00
2023-01-23T08:59:20.391Z,100.00
2023-01-23T09:01:48.792Z,100.00
2023-01-23T09:04:16.992Z,100.00
2023-01-23T09:06:44.126Z,100.00
2023-01-23T09:09:10.817Z,100.00
2023-01-23T09:11:37.687Z,100.00
2023-01-23T09:14:04.753Z,100.00
2023-01-23T09:16:31.550Z,100.00
2023-01-23T09:18:58.327Z,100.00
2023-01-23T09:21:24.943Z,100.00
2023-01-23T09:23:51.588Z,100.00
2023-01-23T09:26:19.951Z,100.00
2023-01-23T09:28:46.727Z,100.00
2023-01-23T09:31:13.874Z,100.00
2023-01-23T09:33:41.186Z,100.00
2023-01-23T09:36:09.292Z,100.00
2023-01-23T09:38:36.076Z,100.00
2023-01-23T09:41:10.331Z,100.00
2023-01-23T09:43:51.629Z,100.00
2023-01-23T09:46:25.551Z,100.00
2023-01-23T09:49:05.145Z,100.00
2023-01-23T09:51:44.362Z,100.00
2023-01-23T09:54:19.642Z,100.00
2023-01-23T09:56:46.300Z,100.00
2023-01-23T09:59:24.706Z,100.00
2023-01-23T10:01:51.672Z,100.00
2023-01-23T10:04:18.355Z,100.00
2023-01-23T10:07:17.174Z,100.00
2023-01-23T10:10:00.419Z,100.00
2023-01-23T10:12:27.326Z,100.00
2023-01-23T10:15:19.079Z,100.00
2023-01-23T10:18:04.160Z,100.00
2023-01-23T10:21:15.964Z,100.00
2023-01-23T10:24:19.475Z,100.00
2023-01-23T13:30:39.224Z,100.00
2023-01-23T13:33:06.199Z,100.00
2023-01-23T13:35:39.419Z,100.00
2023-01-23T13:38:21.165Z,100.00
2023-01-23T13:41:09.781Z,100.00
2023-01-23T13:43:49.253Z,100.00
2023-01-23T14:21:46.645Z,100.00
2023-01-23T14:24:22.912Z,100.00
2023-01-23T14:26:51.477Z,100.00
2023-01-23T14:29:24.729Z,100.00
2023-01-23T14:31:51.892Z,100.00
2023-01-23T14:34:20.495Z,100.00
2023-01-23T14:37:10.138Z,100.00
2023-01-23T14:39:36.818Z,100.00
2023-01-23T14:42:04.455Z,100.00
2023-01-23T14:44:41.943Z,100.00
2023-01-23T14:47:32.746Z,100.00
2023-01-23T14:50:01.308Z,100.00
2023-01-23T14:52:29.065Z,100.00
2023-01-23T14:54:59.198Z,100.00
2023-01-23T14:57:30.355Z,100.00
2023-01-23T14:59:57.639Z,100.00
2023-01-23T15:02:33.541Z,100.00
2023-01-23T15:05:06.598Z,100.00
2023-01-23T15:07:43.582Z,100.00
2023-01-23T15:10:21.889Z,100.00
2023-01-23T15:13:02.652Z,100.00
2023-01-23T15:15:32.300Z,100.00
2023-01-23T15:18:01.343Z,100.00
2023-01-23T15:20:30.913Z,100.00
2023-01-23T15:22:59.674Z,100.00
2023-01-23T15:25:30.072Z,100.00
2023-01-23T15:27:56.788Z,100.00
2023-01-23T15:30:32.832Z,100.00
2023-01-23T15:33:09.546Z,100.00
2023-01-23T15:35:37.008Z,100.00
2023-01-23T15:38:04.453Z,100.00
2023-01-23T15:40:34.591Z,100.00
2023-01-23T15:43:18.060Z,100.00
2023-01-23T15:45:45.559Z,100.00
2023-01-23T15:48:12.247Z,100.00
2023-01-23T15:50:38.889Z,100.00
2023-01-23T15:53:12.901Z,100.00
2023-01-23T15:55:39.675Z,100.00
2023-01-23T15:58:06.476Z,100.00
2023-01-23T16:00:33.060Z,100.00
2023-01-23T16:03:00.165Z,100.00
2023-01-23T16:05:28.765Z,100.00
2023-01-23T16:07:56.534Z,100.00
2023-01-23T16:10:29.877Z,100.00
2023-01-23T16:12:57.349Z,100.00
2023-01-23T16:15:25.059Z,100.00
2023-01-23T16:17:52.735Z,100.00
2023-01-23T16:20:39.736Z,100.00
2023-01-23T16:23:15.425Z,100.00
2023-01-23T16:25:45.026Z,100.00
2023-01-23T16:28:20.676Z,100.00
2023-01-23T16:30:47.969Z,100.00
2023-01-23T16:33:14.963Z,100.00
2023-01-23T16:35:41.544Z,100.00
2023-01-23T16:38:15.521Z,100.00
2023-01-23T16:40:42.230Z,100.00
2023-01-23T16:43:08.829Z,100.00
2023-01-23T16:45:35.570Z,100.00
2023-01-23T16:48:03.473Z,100.00
2023-01-23T16:50:35.266Z,100.00
2023-01-23T16:53:28.248Z,100.00
2023-01-23T16:55:59.824Z,100.00
2023-01-23T16:58:31.873Z,100.00
2023-01-23T17:01:01.725Z,100.00
2023-01-23T17:03:33.429Z,100.00
2023-01-23T17:06:00.426Z,100.00
2023-01-23T17:08:27.083Z,100.00
2023-01-23T17:10:56.308Z,100.00
2023-01-23T17:13:22.908Z,100.00
2023-01-23T17:15:50.864Z,100.00
2023-01-23T17:18:36.160Z,100.00
2023-01-23T17:21:03.587Z,100.00
2023-01-23T17:23:30.163Z,100.00
2023-01-23T17:26:01.587Z,100.00
2023-01-23T17:28:29.017Z,100.00
2023-01-23T17:30:57.203Z,100.00
2023-01-23T17:33:27.108Z,100.00
2023-01-23T17:35:54.207Z,100.00
2023-01-23T17:38:21.621Z,100.00
2023-01-23T17:40:48.502Z,100.00
2023-01-23T17:43:15.585Z,100.00
2023-01-23T17:45:43.435Z,100.00
2023-01-23T17:48:17.027Z,100.00
2023-01-23T17:50:44.720Z,100.00
2023-01-23T17:53:18.778Z,100.00
2023-01-23T17:55:48.246Z,100.00
2023-01-23T17:58:15.141Z,100.00
2023-01-23T18:00:42.427Z,100.00
2023-01-23T18:03:11.704Z,100.00
2023-01-23T18:05:38.970Z,100.00
2023-01-23T18:08:05.627Z,100.00
2023-01-23T18:10:33.371Z,100.00
2023-01-23T18:13:18.413Z,100.00
2023-01-23T18:16:03.951Z,100.00
2023-01-23T18:18:32.174Z,100.00
2023-01-23T18:21:00.617Z,100.00
2023-01-23T18:23:28.193Z,100.00
2023-01-23T18:26:05.802Z,100.00
2023-01-23T18:28:44.226Z,100.00
2023-01-23T18:31:18.339Z,100.00
2023-01-23T18:33:54.206Z,100.00
2023-01-23T18:37:07.384Z,100.00
2023-01-23T18:39:59.559Z,100.00
2023-01-23T18:42:48.637Z,100.00
2023-01-23T18:45:26.409Z,100.00
2023-01-23T18:47:54.133Z,100.00
2023-01-23T18:50:26.252Z,100.00
2023-01-23T18:52:58.799Z,100.00
2023-01-23T18:55:33.757Z,100.00
2023-01-23T18:58:12.707Z,100.00
2023-01-23T19:01:01.078Z,100.00
2023-01-23T19:03:48.527Z,100.00
2023-01-23T19:06:34.266Z,100.00
2023-01-23T19:09:01.093Z,100.00
2023-01-23T19:11:40.699Z,100.00
2023-01-23T19:14:23.695Z,100.00
2023-01-23T19:17:16.426Z,100.00
2023-01-23T19:20:06.922Z,100.00
2023-01-23T19:22:48.126Z,100.00
2023-01-23T19:25:18.254Z,100.00
2023-01-23T19:27:51.682Z,100.00
2023-01-23T19:30:20.720Z,100.00
2023-01-23T19:32:48.522Z,100.00
2023-01-23T19:35:15.289Z,100.00
2023-01-23T19:37:43.168Z,100.00
2023-01-23T19:40:12.997Z,100.00
2023-01-23T19:42:52.441Z,100.00
2023-01-23T19:45:26.006Z,100.00
2023-01-23T19:47:53.654Z,100.00
2023-01-23T19:50:20.867Z,100.00
2023-01-23T19:52:48.513Z,100.00
2023-01-23T19:55:19.941Z,100.00
2023-01-23T19:57:47.216Z,100.00
2023-01-23T20:00:15.223Z,100.00
2023-01-23T20:02:42.129Z,100.00
2023-01-23T20:05:09.619Z,100.00
2023-01-23T20:07:38.167Z,100.00
2023-01-23T20:10:06.256Z,100.00
2023-01-23T20:12:40.324Z,100.00
2023-01-23T20:15:07.792Z,100.00
2023-01-23T20:17:34.586Z,100.00
2023-01-23T20:20:02.115Z,100.00
2023-01-23T20:22:29.577Z,100.00
2023-01-23T20:24:57.318Z,100.00
2023-01-23T20:27:24.110Z,100.00
2023-01-23T20:29:51.441Z,100.00
2023-01-23T20:32:18.335Z,100.00
2023-01-23T20:34:45.219Z,100.00
2023-01-23T20:37:12.062Z,100.00
2023-01-23T20:39:43.252Z,100.00
2023-01-23T20:42:11.364Z,100.00
2023-01-23T20:44:38.160Z,100.00
2023-01-23T20:47:09.228Z,100.00
2023-01-23T20:49:36.166Z,100.00
2023-01-23T20:52:21.712Z,100.00
2023-01-23T20:54:49.527Z,100.00
2023-01-23T20:57:16.888Z,100.00
2023-01-23T20:59:43.866Z,100.00
2023-01-23T21:02:23.657Z,100.00
2023-01-23T21:04:51.354Z,100.00
2023-01-23T21:07:20.946Z,100.00
2023-01-23T21:09:47.871Z,100.00
2023-01-23T21:12:14.610Z,100.00
2023-01-23T21:14:41.883Z,100.00
2023-01-23T21:17:10.238Z,100.00
2023-01-23T21:19:38.783Z,100.00
2023-01-23T21:22:08.167Z,100.00
2023-01-23T21:24:37.271Z,100.00
2023-01-23T21:27:05.882Z,100.00
2023-01-23T21:29:35.063Z,100.00
2023-01-23T21:32:04.272Z,100.00
2023-01-23T21:34:35.622Z,100.00
2023-01-23T21:37:10.204Z,100.00
2023-01-23T21:39:39.584Z,99.82
2023-01-23T21:42:08.212Z,98.76
2023-01-23T21:44:37.718Z,97.72
2023-01-23T21:47:07.230Z,97.31
2023-01-23T21:49:37.201Z,96.77
2023-01-23T21:52:06.071Z,96.65
2023-01-23T21:54:35.206Z,96.19
2023-01-23T21:57:05.203Z,95.84
2023-01-23T21:59:35.291Z,95.61
2023-01-23T22:02:04.194Z,95.13
2023-01-23T22:04:34.288Z,94.64
2023-01-23T22:07:03.089Z,94.52
2023-01-23T22:09:33.240Z,94.33
2023-01-23T22:12:02.202Z,94.69
2023-01-23T22:14:32.214Z,95.25
2023-01-23T22:17:02.222Z,95.24
2023-01-23T22:26:02.282Z,95.59
2023-01-23T22:28:30.433Z,95.19
2023-01-23T22:30:57.370Z,94.95
2023-01-23T22:33:32.863Z,95.04
2023-01-23T22:36:03.637Z,95.50
2023-01-23T22:38:30.400Z,95.18
2023-01-23T22:40:58.509Z,94.85
2023-01-23T22:43:26.374Z,94.89
2023-01-23T22:46:07.190Z,94.97
2023-01-23T22:48:35.353Z,94.80
2023-01-23T22:51:03.016Z,94.49
2023-01-23T22:53:30.079Z,93.91
2023-01-23T22:55:56.916Z,93.88
2023-01-23T22:58:23.803Z,94.20
2023-01-23T23:00:52.580Z,94.24
2023-01-23T23:03:20.460Z,93.90
2023-01-23T23:05:47.592Z,92.92
2023-01-23T23:08:14.599Z,93.47
2023-01-23T23:10:41.469Z,93.45
2023-01-23T23:13:08.488Z,93.88
2023-01-23T23:15:35.496Z,94.28
2023-01-23T23:18:02.073Z,94.82
2023-01-23T23:20:31.270Z,95.04
2023-01-23T23:22:58.151Z,94.60
2023-01-23T23:25:24.989Z,94.36
2023-01-23T23:27:51.586Z,93.89
2023-01-23T23:30:18.245Z,94.05
2023-01-23T23:32:45.540Z,93.25
2023-01-23T23:35:12.663Z,93.10
2023-01-23T23:37:39.277Z,93.14
2023-01-23T23:40:06.763Z,93.05
2023-01-23T23:42:33.415Z,92.78
2023-01-23T23:45:00.088Z,92.60
2023-01-23T23:47:27.668Z,92.33
2023-01-23T23:49:54.204Z,92.21
2023-01-23T23:52:20.814Z,92.46
2023-01-23T23:54:47.414Z,92.03
2023-01-23T23:57:14.061Z,91.89
2023-01-23T23:59:41.763Z,91.73
